EZY104 LIRI-LATI
Flight info
| Callsign | EZY104 |
|---|---|
| Flight time | 0h 44m |
| Altitude | 32000 |
| Route | POLIT DCT PAPIZ DCT DIRES |
| Aircraft | A320/M-SDE3FGHIRWY/LB1 |
Departure
| Time | 2026-04-27 16:58 |
|---|---|
| Airport | Salerno Costa d'Amalfi Airport (LIRI) |
Arrival
| Time | 2026-04-27 17:43 |
|---|---|
| Airport | Tirana International Airport Mother Teresa (LATI) |
| Time | Latitude | Longitude | Altitude | Speed | Heading |
|---|---|---|---|---|---|
| 2026-04-27 16:37 | 40.62110 | 14.92129 | 84 ft | 0 kts | 141° |
| 2026-04-27 16:48 | 40.62120 | 14.92119 | 84 ft | 3 kts | 148° |
| 2026-04-27 16:48 | 40.62138 | 14.92108 | 84 ft | 3 kts | 170° |
| 2026-04-27 16:49 | 40.62165 | 14.92115 | 84 ft | 0 kts | 232° |
| 2026-04-27 16:51 | 40.62148 | 14.92088 | 84 ft | 6 kts | 232° |
| 2026-04-27 16:51 | 40.62119 | 14.92039 | 84 ft | 7 kts | 232° |
| 2026-04-27 16:52 | 40.62085 | 14.91980 | 84 ft | 10 kts | 232° |
| 2026-04-27 16:52 | 40.62040 | 14.91881 | 84 ft | 12 kts | 278° |
| 2026-04-27 16:52 | 40.62089 | 14.91824 | 84 ft | 8 kts | 337° |
| 2026-04-27 16:52 | 40.62126 | 14.91859 | 84 ft | 6 kts | 47° |
| 2026-04-27 16:53 | 40.62153 | 14.91896 | 84 ft | 5 kts | 46° |
| 2026-04-27 16:53 | 40.62183 | 14.91909 | 84 ft | 6 kts | 349° |
| 2026-04-27 16:53 | 40.62229 | 14.91869 | 84 ft | 8 kts | 322° |
| 2026-04-27 16:53 | 40.62269 | 14.91828 | 84 ft | 7 kts | 322° |
| 2026-04-27 16:54 | 40.62302 | 14.91793 | 84 ft | 5 kts | 318° |
| 2026-04-27 16:54 | 40.62299 | 14.91764 | 84 ft | 0 kts | 231° |
| 2026-04-27 16:58 | 40.62272 | 14.91719 | 85 ft | 34 kts | 232° |
| 2026-04-27 16:58 | 40.61917 | 14.91123 | 86 ft | 127 kts | 232° |
| 2026-04-27 16:58 | 40.61243 | 14.89992 | 402 ft | 172 kts | 232° |
| 2026-04-27 16:58 | 40.60478 | 14.88757 | 1399 ft | 178 kts | 230° |
| 2026-04-27 16:59 | 40.59635 | 14.87447 | 1858 ft | 202 kts | 230° |
| 2026-04-27 16:59 | 40.58679 | 14.85944 | 2342 ft | 226 kts | 230° |
| 2026-04-27 16:59 | 40.57615 | 14.84270 | 2865 ft | 250 kts | 230° |
| 2026-04-27 16:59 | 40.56467 | 14.82463 | 3630 ft | 262 kts | 230° |
| 2026-04-27 17:00 | 40.54488 | 14.79336 | 5202 ft | 270 kts | 230° |
| 2026-04-27 17:00 | 40.52874 | 14.76776 | 6412 ft | 276 kts | 230° |
| 2026-04-27 17:00 | 40.51639 | 14.74820 | 7284 ft | 281 kts | 230° |
| 2026-04-27 17:01 | 40.50382 | 14.72831 | 8131 ft | 285 kts | 230° |
| 2026-04-27 17:01 | 40.49104 | 14.70806 | 8948 ft | 289 kts | 230° |
| 2026-04-27 17:01 | 40.47812 | 14.68760 | 9727 ft | 293 kts | 230° |
| 2026-04-27 17:01 | 40.46479 | 14.66664 | 10251 ft | 308 kts | 228° |
| 2026-04-27 17:02 | 40.44770 | 14.64888 | 10446 ft | 330 kts | 207° |
| 2026-04-27 17:02 | 40.42525 | 14.64014 | 10833 ft | 344 kts | 185° |
| 2026-04-27 17:02 | 40.40123 | 14.64311 | 11420 ft | 351 kts | 163° |
| 2026-04-27 17:02 | 40.37961 | 14.65809 | 12024 ft | 356 kts | 140° |
| 2026-04-27 17:03 | 40.36403 | 14.68327 | 12605 ft | 361 kts | 117° |
| 2026-04-27 17:03 | 40.35725 | 14.71496 | 13154 ft | 365 kts | 93° |
| 2026-04-27 17:03 | 40.35980 | 14.74820 | 13683 ft | 369 kts | 79° |
| 2026-04-27 17:03 | 40.36463 | 14.78143 | 14219 ft | 372 kts | 79° |
| 2026-04-27 17:04 | 40.36963 | 14.81497 | 14729 ft | 375 kts | 79° |
| 2026-04-27 17:04 | 40.37463 | 14.84870 | 15216 ft | 378 kts | 79° |
| 2026-04-27 17:04 | 40.37954 | 14.88228 | 15679 ft | 382 kts | 79° |
| 2026-04-27 17:04 | 40.38452 | 14.91665 | 16131 ft | 385 kts | 79° |
| 2026-04-27 17:05 | 40.38954 | 14.95140 | 16563 ft | 388 kts | 79° |
| 2026-04-27 17:05 | 40.39455 | 14.98634 | 16975 ft | 390 kts | 79° |
| 2026-04-27 17:05 | 40.39960 | 15.02154 | 17368 ft | 393 kts | 79° |
| 2026-04-27 17:05 | 40.40466 | 15.05699 | 17746 ft | 396 kts | 79° |
| 2026-04-27 17:06 | 40.40969 | 15.09215 | 18109 ft | 398 kts | 79° |
| 2026-04-27 17:06 | 40.41483 | 15.12808 | 18456 ft | 401 kts | 79° |
| 2026-04-27 17:06 | 40.41995 | 15.16415 | 18787 ft | 403 kts | 79° |
| 2026-04-27 17:06 | 40.42511 | 15.20058 | 19106 ft | 406 kts | 79° |
| 2026-04-27 17:07 | 40.43026 | 15.23711 | 19415 ft | 408 kts | 79° |
| 2026-04-27 17:07 | 40.43542 | 15.27386 | 19707 ft | 410 kts | 79° |
| 2026-04-27 17:07 | 40.44060 | 15.31075 | 19986 ft | 412 kts | 79° |
| 2026-04-27 17:07 | 40.44578 | 15.34785 | 20252 ft | 414 kts | 80° |
| 2026-04-27 17:08 | 40.45091 | 15.38464 | 20501 ft | 416 kts | 80° |
| 2026-04-27 17:08 | 40.45614 | 15.42201 | 20737 ft | 417 kts | 80° |
| 2026-04-27 17:08 | 40.46140 | 15.45968 | 20960 ft | 419 kts | 80° |
| 2026-04-27 17:08 | 40.46666 | 15.49742 | 21169 ft | 421 kts | 80° |
| 2026-04-27 17:09 | 40.47193 | 15.53531 | 21370 ft | 422 kts | 80° |
| 2026-04-27 17:09 | 40.47720 | 15.57340 | 21567 ft | 424 kts | 80° |
| 2026-04-27 17:09 | 40.48245 | 15.61156 | 21765 ft | 425 kts | 80° |
| 2026-04-27 17:09 | 40.48772 | 15.64982 | 21953 ft | 427 kts | 80° |
| 2026-04-27 17:10 | 40.49303 | 15.68832 | 22134 ft | 428 kts | 80° |
| 2026-04-27 17:10 | 40.49829 | 15.72657 | 22301 ft | 429 kts | 80° |
| 2026-04-27 17:10 | 40.50358 | 15.76528 | 22463 ft | 431 kts | 80° |
| 2026-04-27 17:10 | 40.50883 | 15.80414 | 22619 ft | 432 kts | 80° |
| 2026-04-27 17:11 | 40.51406 | 15.84308 | 22770 ft | 433 kts | 80° |
| 2026-04-27 17:11 | 40.52452 | 15.92074 | 23048 ft | 435 kts | 80° |
| 2026-04-27 17:11 | 40.52980 | 15.95999 | 23179 ft | 436 kts | 80° |
| 2026-04-27 17:12 | 40.54041 | 16.03878 | 23438 ft | 438 kts | 80° |
| 2026-04-27 17:12 | 40.54573 | 16.07827 | 23563 ft | 439 kts | 80° |
| 2026-04-27 17:12 | 40.55107 | 16.11790 | 23688 ft | 440 kts | 80° |
| 2026-04-27 17:13 | 40.55637 | 16.15762 | 23813 ft | 441 kts | 80° |
| 2026-04-27 17:13 | 40.56166 | 16.19740 | 23939 ft | 441 kts | 80° |
| 2026-04-27 17:13 | 40.56691 | 16.23718 | 24064 ft | 442 kts | 80° |
| 2026-04-27 17:13 | 40.57212 | 16.27707 | 24189 ft | 442 kts | 80° |
| 2026-04-27 17:14 | 40.57726 | 16.31648 | 24312 ft | 443 kts | 80° |
| 2026-04-27 17:14 | 40.58248 | 16.35646 | 24437 ft | 443 kts | 80° |
| 2026-04-27 17:14 | 40.58770 | 16.39648 | 24563 ft | 443 kts | 80° |
| 2026-04-27 17:14 | 40.59293 | 16.43647 | 24687 ft | 444 kts | 80° |
| 2026-04-27 17:15 | 40.59814 | 16.47644 | 24812 ft | 444 kts | 80° |
| 2026-04-27 17:15 | 40.60334 | 16.51648 | 24937 ft | 444 kts | 81° |
| 2026-04-27 17:15 | 40.60855 | 16.55666 | 25062 ft | 443 kts | 81° |
| 2026-04-27 17:15 | 40.61374 | 16.59665 | 25186 ft | 443 kts | 81° |
| 2026-04-27 17:16 | 40.61891 | 16.63660 | 25311 ft | 443 kts | 81° |
| 2026-04-27 17:16 | 40.62398 | 16.67614 | 25435 ft | 442 kts | 81° |
| 2026-04-27 17:16 | 40.62905 | 16.71599 | 25559 ft | 442 kts | 81° |
| 2026-04-27 17:16 | 40.63413 | 16.75587 | 25683 ft | 441 kts | 81° |
| 2026-04-27 17:17 | 40.63922 | 16.79578 | 25808 ft | 441 kts | 81° |
| 2026-04-27 17:17 | 40.64424 | 16.83556 | 25933 ft | 440 kts | 81° |
| 2026-04-27 17:17 | 40.64925 | 16.87532 | 26057 ft | 440 kts | 81° |
| 2026-04-27 17:18 | 40.65920 | 16.95411 | 26306 ft | 438 kts | 81° |
| 2026-04-27 17:18 | 40.66417 | 16.99370 | 26430 ft | 438 kts | 81° |
| 2026-04-27 17:18 | 40.66911 | 17.03333 | 26555 ft | 437 kts | 81° |
| 2026-04-27 17:18 | 40.67402 | 17.07288 | 26680 ft | 437 kts | 81° |
| 2026-04-27 17:19 | 40.67889 | 17.11230 | 26805 ft | 436 kts | 81° |
| 2026-04-27 17:19 | 40.68378 | 17.15183 | 26930 ft | 436 kts | 81° |
| 2026-04-27 17:19 | 40.68868 | 17.19136 | 27055 ft | 435 kts | 81° |
| 2026-04-27 17:19 | 40.69352 | 17.23019 | 27178 ft | 435 kts | 81° |
| 2026-04-27 17:20 | 40.69839 | 17.26950 | 27303 ft | 434 kts | 81° |
| 2026-04-27 17:20 | 40.70321 | 17.30889 | 27428 ft | 434 kts | 81° |
| 2026-04-27 17:20 | 40.70798 | 17.34825 | 27486 ft | 434 kts | 81° |
| 2026-04-27 17:20 | 40.71272 | 17.38754 | 27139 ft | 443 kts | 81° |
| 2026-04-27 17:21 | 40.71757 | 17.42781 | 26888 ft | 446 kts | 81° |
| 2026-04-27 17:21 | 40.72245 | 17.46822 | 26609 ft | 446 kts | 81° |
| 2026-04-27 17:21 | 40.72729 | 17.50831 | 26310 ft | 444 kts | 81° |
| 2026-04-27 17:21 | 40.73212 | 17.54842 | 26009 ft | 441 kts | 81° |
| 2026-04-27 17:22 | 40.73690 | 17.58829 | 25708 ft | 439 kts | 81° |
| 2026-04-27 17:22 | 40.74165 | 17.62797 | 25408 ft | 436 kts | 81° |
| 2026-04-27 17:22 | 40.74637 | 17.66742 | 25107 ft | 434 kts | 81° |
| 2026-04-27 17:22 | 40.75102 | 17.70666 | 24807 ft | 432 kts | 81° |
| 2026-04-27 17:23 | 40.75556 | 17.74521 | 24510 ft | 429 kts | 81° |
| 2026-04-27 17:23 | 40.75994 | 17.78258 | 24220 ft | 427 kts | 81° |
| 2026-04-27 17:23 | 40.76449 | 17.82124 | 23920 ft | 425 kts | 81° |
| 2026-04-27 17:23 | 40.76766 | 17.84813 | 23709 ft | 423 kts | 81° |
| 2026-04-27 17:24 | 40.77165 | 17.88211 | 23443 ft | 421 kts | 81° |
| 2026-04-27 17:24 | 40.77614 | 17.92022 | 23142 ft | 419 kts | 81° |
| 2026-04-27 17:24 | 40.78056 | 17.95802 | 22842 ft | 416 kts | 81° |
| 2026-04-27 17:24 | 40.78495 | 17.99578 | 22541 ft | 414 kts | 81° |
| 2026-04-27 17:25 | 40.78928 | 18.03320 | 22241 ft | 412 kts | 82° |
| 2026-04-27 17:25 | 40.79358 | 18.07044 | 21940 ft | 409 kts | 82° |
| 2026-04-27 17:25 | 40.79783 | 18.10747 | 21640 ft | 407 kts | 82° |
| 2026-04-27 17:25 | 40.80201 | 18.14398 | 21343 ft | 405 kts | 82° |
| 2026-04-27 17:26 | 40.80620 | 18.18060 | 21042 ft | 403 kts | 82° |
| 2026-04-27 17:26 | 40.81037 | 18.21711 | 20742 ft | 401 kts | 82° |
| 2026-04-27 17:26 | 40.81450 | 18.25334 | 20442 ft | 398 kts | 82° |
| 2026-04-27 17:26 | 40.81860 | 18.28953 | 20140 ft | 396 kts | 82° |
| 2026-04-27 17:27 | 40.82270 | 18.32548 | 19839 ft | 394 kts | 82° |
| 2026-04-27 17:27 | 40.82676 | 18.36120 | 19539 ft | 392 kts | 82° |
| 2026-04-27 17:27 | 40.83076 | 18.39673 | 19238 ft | 390 kts | 82° |
| 2026-04-27 17:27 | 40.83470 | 18.43206 | 18938 ft | 388 kts | 82° |
| 2026-04-27 17:28 | 40.83862 | 18.46719 | 18637 ft | 386 kts | 82° |
| 2026-04-27 17:28 | 40.84250 | 18.50212 | 18337 ft | 384 kts | 82° |
| 2026-04-27 17:28 | 40.85023 | 18.57140 | 17737 ft | 379 kts | 82° |
| 2026-04-27 17:29 | 40.85405 | 18.60586 | 17435 ft | 377 kts | 82° |
| 2026-04-27 17:29 | 40.85777 | 18.63967 | 17139 ft | 375 kts | 82° |
| 2026-04-27 17:29 | 40.86151 | 18.67371 | 16838 ft | 373 kts | 82° |
| 2026-04-27 17:29 | 40.86521 | 18.70755 | 16538 ft | 371 kts | 82° |
| 2026-04-27 17:30 | 40.86890 | 18.74125 | 16237 ft | 369 kts | 82° |
| 2026-04-27 17:30 | 40.87621 | 18.80811 | 15636 ft | 366 kts | 82° |
| 2026-04-27 17:30 | 40.87980 | 18.84132 | 15336 ft | 364 kts | 82° |
| 2026-04-27 17:31 | 40.88336 | 18.87429 | 15035 ft | 362 kts | 82° |
| 2026-04-27 17:31 | 40.88696 | 18.90711 | 14735 ft | 360 kts | 80° |
| 2026-04-27 17:31 | 40.89080 | 18.92840 | 14535 ft | 359 kts | 72° |
| 2026-04-27 17:31 | 40.90490 | 18.96768 | 14136 ft | 356 kts | 56° |
| 2026-04-27 17:32 | 40.92044 | 18.99302 | 13836 ft | 354 kts | 47° |
| 2026-04-27 17:32 | 40.95361 | 19.04081 | 13235 ft | 351 kts | 47° |
| 2026-04-27 17:32 | 40.96462 | 19.05680 | 13034 ft | 350 kts | 47° |
| 2026-04-27 17:33 | 40.98098 | 19.08062 | 12733 ft | 348 kts | 47° |
| 2026-04-27 17:33 | 40.99576 | 19.10574 | 12419 ft | 345 kts | 60° |
| 2026-04-27 17:33 | 41.00731 | 19.13349 | 12096 ft | 344 kts | 62° |
| 2026-04-27 17:33 | 41.01871 | 19.16130 | 11770 ft | 342 kts | 62° |
| 2026-04-27 17:34 | 41.02985 | 19.18861 | 11448 ft | 340 kts | 62° |
| 2026-04-27 17:34 | 41.04104 | 19.21621 | 11121 ft | 338 kts | 62° |
| 2026-04-27 17:34 | 41.05209 | 19.24358 | 10796 ft | 336 kts | 62° |
| 2026-04-27 17:34 | 41.06310 | 19.27083 | 10470 ft | 333 kts | 62° |
| 2026-04-27 17:35 | 41.07393 | 19.29763 | 10144 ft | 326 kts | 62° |
| 2026-04-27 17:35 | 41.08456 | 19.32393 | 9818 ft | 320 kts | 62° |
| 2026-04-27 17:35 | 41.09500 | 19.34975 | 9492 ft | 315 kts | 62° |
| 2026-04-27 17:35 | 41.10516 | 19.37490 | 9170 ft | 310 kts | 62° |
| 2026-04-27 17:36 | 41.11526 | 19.39990 | 8845 ft | 305 kts | 62° |
| 2026-04-27 17:36 | 41.12522 | 19.42460 | 8518 ft | 300 kts | 62° |
| 2026-04-27 17:36 | 41.13495 | 19.44881 | 8192 ft | 295 kts | 62° |
| 2026-04-27 17:36 | 41.14453 | 19.47266 | 7867 ft | 292 kts | 62° |
| 2026-04-27 17:37 | 41.15405 | 19.49634 | 7541 ft | 289 kts | 62° |
| 2026-04-27 17:37 | 41.16350 | 19.51981 | 7216 ft | 288 kts | 62° |
| 2026-04-27 17:37 | 41.17290 | 19.54319 | 6889 ft | 286 kts | 62° |
| 2026-04-27 17:37 | 41.18224 | 19.56641 | 6540 ft | 284 kts | 62° |
| 2026-04-27 17:38 | 41.19151 | 19.58950 | 6189 ft | 282 kts | 62° |
| 2026-04-27 17:38 | 41.20056 | 19.61211 | 5830 ft | 279 kts | 62° |
| 2026-04-27 17:38 | 41.20963 | 19.63479 | 5453 ft | 276 kts | 62° |
| 2026-04-27 17:38 | 41.21858 | 19.65716 | 5077 ft | 273 kts | 62° |
| 2026-04-27 17:39 | 41.22744 | 19.67933 | 4701 ft | 270 kts | 62° |
| 2026-04-27 17:39 | 41.23621 | 19.70128 | 4325 ft | 267 kts | 62° |
| 2026-04-27 17:39 | 41.24513 | 19.72280 | 3948 ft | 264 kts | 56° |
| 2026-04-27 17:39 | 41.25887 | 19.73801 | 3566 ft | 255 kts | 19° |
| 2026-04-27 17:40 | 41.27588 | 19.74037 | 3191 ft | 241 kts | 356° |
| 2026-04-27 17:40 | 41.29232 | 19.73852 | 2819 ft | 233 kts | 353° |
| 2026-04-27 17:40 | 41.30821 | 19.73608 | 2444 ft | 227 kts | 352° |
| 2026-04-27 17:40 | 41.32374 | 19.73361 | 2067 ft | 222 kts | 352° |
| 2026-04-27 17:41 | 41.33848 | 19.73133 | 1895 ft | 209 kts | 352° |
| 2026-04-27 17:41 | 41.35251 | 19.72917 | 1472 ft | 194 kts | 353° |
| 2026-04-27 17:41 | 41.36537 | 19.72744 | 1058 ft | 179 kts | 354° |
| 2026-04-27 17:41 | 41.37726 | 19.72588 | 783 ft | 162 kts | 352° |
| 2026-04-27 17:42 | 41.38816 | 19.72430 | 480 ft | 151 kts | 353° |
| 2026-04-27 17:42 | 41.39830 | 19.72283 | 267 ft | 143 kts | 353° |
| 2026-04-27 17:42 | 41.40793 | 19.72148 | 135 ft | 128 kts | 354° |
| 2026-04-27 17:42 | 41.41546 | 19.72048 | 127 ft | 88 kts | 354° |
| 2026-04-27 17:43 | 41.42017 | 19.71983 | 124 ft | 47 kts | 354° |
| 2026-04-27 17:43 | 41.42197 | 19.71958 | 120 ft | 21 kts | 354° |
| 2026-04-27 17:43 | 41.42289 | 19.71938 | 121 ft | 3 kts | 292° |
| 2026-04-27 17:43 | 41.42284 | 19.71844 | 120 ft | 14 kts | 263° |
| 2026-04-27 17:44 | 41.42271 | 19.71703 | 120 ft | 16 kts | 263° |
| 2026-04-27 17:44 | 41.42261 | 19.71589 | 120 ft | 9 kts | 263° |
| 2026-04-27 17:44 | 41.42214 | 19.71545 | 121 ft | 10 kts | 178° |
| 2026-04-27 17:44 | 41.42136 | 19.71554 | 121 ft | 13 kts | 175° |
| 2026-04-27 17:45 | 41.42042 | 19.71568 | 122 ft | 14 kts | 173° |
| 2026-04-27 17:45 | 41.41963 | 19.71577 | 123 ft | 3 kts | 187° |
| 2026-04-27 17:45 | 41.41955 | 19.71559 | 123 ft | 2 kts | 255° |
| 2026-04-27 17:45 | 41.41949 | 19.71523 | 123 ft | 0 kts | 265° |